createdAt,value
2018-09-12T00:00:02.652Z,16.87
2018-09-12T00:01:02.825Z,16.84
2018-09-12T00:02:03.002Z,16.87
2018-09-12T00:03:03.178Z,16.83
2018-09-12T00:04:03.362Z,16.86
2018-09-12T00:05:03.536Z,16.76
2018-09-12T00:06:03.707Z,16.71
2018-09-12T00:07:03.882Z,16.74
2018-09-12T00:08:04.060Z,16.61
2018-09-12T00:09:04.235Z,16.64
2018-09-12T00:10:04.410Z,16.65
2018-09-12T00:11:04.631Z,16.61
2018-09-12T00:12:04.808Z,16.53
2018-09-12T00:13:04.980Z,16.35
2018-09-12T00:14:05.151Z,16.41
2018-09-12T00:15:05.368Z,16.39
2018-09-12T00:16:05.528Z,16.29
2018-09-12T00:17:05.702Z,16.42
2018-09-12T00:18:05.878Z,16.46
2018-09-12T00:19:06.053Z,16.33
2018-09-12T00:20:06.229Z,16.26
2018-09-12T00:21:06.495Z,16.24
2018-09-12T00:22:06.578Z,16.26
2018-09-12T00:23:06.757Z,16.41
2018-09-12T00:24:06.937Z,16.43
2018-09-12T00:25:07.108Z,16.42
2018-09-12T00:26:07.279Z,16.47
2018-09-12T00:27:07.452Z,16.39
2018-09-12T00:28:07.624Z,16.47
2018-09-12T00:29:07.795Z,16.38
2018-09-12T00:30:07.972Z,16.41
2018-09-12T00:31:08.147Z,16.33
2018-09-12T00:32:08.328Z,16.51
2018-09-12T00:33:08.508Z,16.35
2018-09-12T00:34:08.681Z,16.36
2018-09-12T00:35:08.882Z,16.39
2018-09-12T00:36:09.075Z,16.33
2018-09-12T00:37:09.242Z,16.32
2018-09-12T00:38:09.419Z,16.16
2018-09-12T00:39:09.602Z,16.26
2018-09-12T00:40:09.787Z,16.20
2018-09-12T00:41:09.963Z,16.15
2018-09-12T00:42:10.143Z,16.23
2018-09-12T00:43:10.314Z,16.16
2018-09-12T00:44:10.489Z,16.12
2018-09-12T00:45:10.668Z,16.05
2018-09-12T00:46:10.837Z,16.12
2018-09-12T00:47:11.020Z,16.04
2018-09-12T00:48:11.198Z,16.10
2018-09-12T00:49:11.434Z,16.04
2018-09-12T00:50:11.487Z,15.94
2018-09-12T00:51:11.662Z,16.01
2018-09-12T00:52:11.835Z,15.94
2018-09-12T00:53:12.014Z,15.97
2018-09-12T00:54:12.194Z,15.86
2018-09-12T00:55:12.365Z,15.82
2018-09-12T00:56:12.571Z,15.84
2018-09-12T00:57:12.742Z,15.83
2018-09-12T00:58:12.919Z,15.76
2018-09-12T00:59:13.145Z,15.80
2018-09-12T01:00:13.266Z,15.79
2018-09-12T01:01:13.470Z,15.83
2018-09-12T01:02:13.685Z,15.70
2018-09-12T01:03:13.809Z,15.67
2018-09-12T01:04:13.921Z,15.73
2018-09-12T01:05:14.099Z,15.68
2018-09-12T01:06:14.276Z,15.76
2018-09-12T01:07:14.443Z,15.75
2018-09-12T01:08:14.618Z,15.72
2018-09-12T01:09:14.800Z,15.68
2018-09-12T01:10:14.974Z,15.76
2018-09-12T01:11:15.153Z,15.67
2018-09-12T01:12:15.336Z,15.73
2018-09-12T01:13:15.512Z,15.83
2018-09-12T01:14:15.689Z,15.67
2018-09-12T01:15:15.862Z,15.59
2018-09-12T01:16:16.036Z,15.73
2018-09-12T01:17:16.208Z,15.67
2018-09-12T01:18:16.386Z,15.70
2018-09-12T01:19:16.555Z,15.70
2018-09-12T01:20:16.734Z,15.76
2018-09-12T01:21:16.973Z,15.64
2018-09-12T01:22:17.021Z,15.62
2018-09-12T01:23:17.194Z,15.57
2018-09-12T01:24:17.366Z,15.59
2018-09-12T01:25:17.543Z,15.52
2018-09-12T01:26:17.722Z,15.58
2018-09-12T01:27:17.896Z,15.64
2018-09-12T01:28:18.069Z,15.47
2018-09-12T01:29:18.245Z,15.44
2018-09-12T01:30:18.423Z,15.37
2018-09-12T01:31:18.608Z,15.40
2018-09-12T01:32:18.773Z,15.33
2018-09-12T01:33:18.945Z,15.35
2018-09-12T01:34:19.120Z,15.40
2018-09-12T01:35:19.299Z,15.31
2018-09-12T01:36:19.470Z,15.40
2018-09-12T01:37:19.647Z,15.36
2018-09-12T01:38:19.825Z,15.31
2018-09-12T01:39:19.998Z,15.24
2018-09-12T01:40:20.171Z,15.35
2018-09-12T01:41:20.342Z,15.27
2018-09-12T01:42:20.517Z,15.29
2018-09-12T01:43:20.694Z,15.19
2018-09-12T01:44:20.867Z,15.33
2018-09-12T01:45:21.041Z,15.36
2018-09-12T01:46:21.218Z,15.31
2018-09-12T01:47:21.403Z,15.36
2018-09-12T01:48:21.576Z,15.44
2018-09-12T01:49:21.744Z,15.47
2018-09-12T01:50:21.917Z,15.44
2018-09-12T01:51:22.090Z,15.33
2018-09-12T01:52:22.256Z,15.40
2018-09-12T01:53:22.435Z,15.33
2018-09-12T01:54:22.598Z,15.43
2018-09-12T01:55:22.775Z,15.25
2018-09-12T01:56:22.971Z,15.29
2018-09-12T01:57:23.146Z,15.19
2018-09-12T01:58:23.321Z,15.17
2018-09-12T01:59:23.498Z,15.14
2018-09-12T02:00:23.669Z,15.15
2018-09-12T02:01:23.838Z,15.17
2018-09-12T02:02:24.014Z,15.03
2018-09-12T02:03:24.197Z,15.00
2018-09-12T02:04:24.371Z,15.02
2018-09-12T02:05:24.550Z,15.04
2018-09-12T02:06:24.722Z,15.11
2018-09-12T02:07:24.892Z,15.07
2018-09-12T02:08:25.065Z,14.92
2018-09-12T02:09:25.235Z,14.96
2018-09-12T02:10:25.415Z,15.07
2018-09-12T02:11:25.591Z,15.11
2018-09-12T02:12:25.766Z,14.99
2018-09-12T02:13:25.938Z,15.04
2018-09-12T02:14:26.109Z,15.06
2018-09-12T02:15:26.286Z,15.15
2018-09-12T02:16:26.465Z,15.11
2018-09-12T02:17:26.636Z,15.15
2018-09-12T02:18:26.822Z,15.15
2018-09-12T02:19:26.998Z,15.03
2018-09-12T02:20:27.184Z,15.00
2018-09-12T02:21:27.356Z,15.07
2018-09-12T02:22:27.627Z,15.00
2018-09-12T02:23:27.676Z,14.97
2018-09-12T02:24:27.852Z,14.89
2018-09-12T02:25:28.020Z,14.94
2018-09-12T02:26:28.197Z,14.88
2018-09-12T02:27:28.369Z,14.92
2018-09-12T02:28:28.548Z,14.94
2018-09-12T02:29:28.716Z,14.92
2018-09-12T02:30:28.884Z,14.91
2018-09-12T02:31:29.061Z,14.97
2018-09-12T02:32:29.239Z,14.91
2018-09-12T02:33:29.426Z,14.94
2018-09-12T02:34:29.603Z,14.84
2018-09-12T02:35:29.813Z,14.73
2018-09-12T02:36:29.944Z,14.79
2018-09-12T02:37:30.116Z,14.89
2018-09-12T02:38:30.293Z,14.70
2018-09-12T02:39:30.517Z,14.54
2018-09-12T02:40:30.580Z,14.63
2018-09-12T02:41:30.757Z,14.66
2018-09-12T02:42:30.932Z,14.68
2018-09-12T02:43:31.166Z,14.65
2018-09-12T02:44:31.216Z,14.69
2018-09-12T02:45:31.392Z,14.66
2018-09-12T02:46:31.567Z,14.59
2018-09-12T02:47:31.740Z,14.59
2018-09-12T02:48:31.921Z,14.58
2018-09-12T02:49:32.096Z,14.58
2018-09-12T02:50:32.278Z,14.55
2018-09-12T02:51:32.449Z,14.65
2018-09-12T02:52:32.626Z,14.63
2018-09-12T02:53:32.793Z,14.62
2018-09-12T02:54:32.962Z,14.51
2018-09-12T02:55:33.134Z,14.43
2018-09-12T02:56:33.316Z,14.53
2018-09-12T02:57:33.488Z,14.51
2018-09-12T02:58:33.673Z,14.51
2018-09-12T02:59:33.852Z,14.43
2018-09-12T03:00:34.025Z,14.51
2018-09-12T03:01:34.204Z,14.55
2018-09-12T03:02:34.382Z,14.45
2018-09-12T03:03:34.565Z,14.51
2018-09-12T03:04:34.725Z,14.53
2018-09-12T03:05:34.900Z,14.45
2018-09-12T03:06:35.083Z,14.54
2018-09-12T03:07:35.256Z,14.50
2018-09-12T03:08:35.437Z,14.41
2018-09-12T03:09:35.604Z,14.55
2018-09-12T03:10:35.788Z,14.43
2018-09-12T03:11:35.959Z,14.54
2018-09-12T03:12:36.137Z,14.43
2018-09-12T03:13:36.312Z,14.51
2018-09-12T03:14:36.488Z,14.41
2018-09-12T03:15:36.658Z,14.35
2018-09-12T03:16:36.827Z,14.36
2018-09-12T03:17:37.002Z,14.36
2018-09-12T03:18:37.181Z,14.37
2018-09-12T03:19:37.357Z,14.40
2018-09-12T03:20:37.570Z,14.37
2018-09-12T03:21:37.717Z,14.36
2018-09-12T03:22:37.869Z,14.37
2018-09-12T03:23:38.052Z,14.43
2018-09-12T03:24:38.241Z,14.48
2018-09-12T03:25:38.410Z,14.51
2018-09-12T03:26:38.597Z,14.37
2018-09-12T03:27:38.777Z,14.37
2018-09-12T03:28:38.945Z,14.32
2018-09-12T03:29:39.126Z,14.43
2018-09-12T03:30:39.289Z,14.36
2018-09-12T03:31:39.468Z,14.30
2018-09-12T03:32:39.634Z,14.23
2018-09-12T03:33:39.812Z,14.18
2018-09-12T03:34:39.985Z,14.32
2018-09-12T03:35:44.338Z,14.35
2018-09-12T03:36:41.399Z,14.20
2018-09-12T03:37:40.644Z,14.20
2018-09-12T03:38:44.928Z,14.15
2018-09-12T03:39:45.188Z,14.20
2018-09-12T03:40:44.246Z,14.26
2018-09-12T03:41:43.434Z,14.23
2018-09-12T03:42:41.372Z,14.29
2018-09-12T03:43:41.564Z,14.30
2018-09-12T03:44:41.734Z,14.12
2018-09-12T03:45:41.898Z,14.22
2018-09-12T03:46:42.076Z,14.11
2018-09-12T03:47:42.249Z,14.22
2018-09-12T03:48:42.425Z,14.15
2018-09-12T03:49:42.596Z,14.25
2018-09-12T03:50:42.773Z,14.20
2018-09-12T03:51:42.959Z,14.22
2018-09-12T03:52:43.129Z,14.17
2018-09-12T03:53:43.302Z,14.20
2018-09-12T03:54:43.480Z,14.20
2018-09-12T03:55:43.685Z,14.00
2018-09-12T03:56:43.837Z,14.10
2018-09-12T03:57:44.084Z,14.11
2018-09-12T03:58:44.226Z,14.10
2018-09-12T03:59:44.486Z,14.03
2018-09-12T04:00:44.601Z,13.99
2018-09-12T04:01:44.771Z,14.12
2018-09-12T04:02:44.960Z,14.14
2018-09-12T04:03:45.122Z,14.11
2018-09-12T04:04:45.294Z,14.00
2018-09-12T04:05:45.479Z,14.05
2018-09-12T04:06:45.660Z,14.07
2018-09-12T04:07:45.841Z,14.04
2018-09-12T04:08:46.012Z,14.04
2018-09-12T04:09:46.190Z,14.03
2018-09-12T04:10:46.365Z,14.03
2018-09-12T04:11:46.548Z,14.10
2018-09-12T04:12:46.722Z,14.03
2018-09-12T04:13:46.898Z,14.05
2018-09-12T04:14:47.161Z,14.04
2018-09-12T04:15:47.196Z,14.04
2018-09-12T04:16:47.404Z,13.95
2018-09-12T04:17:47.551Z,14.03
2018-09-12T04:18:47.734Z,13.93
2018-09-12T04:19:47.902Z,13.95
2018-09-12T04:20:48.080Z,13.97
2018-09-12T04:21:48.255Z,13.86
2018-09-12T04:22:48.433Z,13.93
2018-09-12T04:23:48.601Z,13.95
2018-09-12T04:24:48.782Z,13.95
2018-09-12T04:25:48.963Z,13.99
2018-09-12T04:26:49.144Z,13.87
2018-09-12T04:27:49.312Z,13.96
2018-09-12T04:28:49.495Z,13.93
2018-09-12T04:29:49.675Z,14.00
2018-09-12T04:30:52.956Z,13.99
2018-09-12T04:31:52.125Z,13.83
2018-09-12T04:32:52.023Z,13.90
2018-09-12T04:33:54.593Z,13.90
2018-09-12T04:34:54.328Z,13.87
2018-09-12T04:35:55.560Z,13.85
2018-09-12T04:36:50.763Z,13.89
2018-09-12T04:37:50.938Z,13.92
2018-09-12T04:38:51.160Z,13.93
2018-09-12T04:39:51.741Z,13.87
2018-09-12T04:40:51.661Z,13.85
2018-09-12T04:41:51.641Z,13.81
2018-09-12T04:42:51.892Z,13.95
2018-09-12T04:43:51.992Z,13.81
2018-09-12T04:44:57.987Z,13.79
2018-09-12T04:45:53.749Z,13.79
2018-09-12T04:46:52.393Z,13.87
2018-09-12T04:47:52.576Z,13.86
2018-09-12T04:48:52.769Z,13.79
2018-09-12T04:49:53.454Z,13.78
2018-09-12T04:50:54.407Z,13.71
2018-09-12T04:51:56.693Z,13.77
2018-09-12T04:52:54.620Z,13.68
2018-09-12T04:53:55.683Z,13.71
2018-09-12T04:54:54.011Z,13.78
2018-09-12T04:55:56.003Z,13.65
2018-09-12T04:56:54.073Z,13.70
2018-09-12T04:57:54.110Z,13.74
2018-09-12T04:58:54.282Z,13.70
2018-09-12T04:59:56.607Z,13.70
2018-09-12T05:00:56.527Z,13.65
2018-09-12T05:01:54.847Z,13.72
2018-09-12T05:02:55.039Z,13.74
2018-09-12T05:03:55.213Z,13.70
2018-09-12T05:04:55.388Z,13.71
2018-09-12T05:05:55.563Z,13.68
2018-09-12T05:06:55.748Z,13.70
2018-09-12T05:07:55.929Z,13.68
2018-09-12T05:08:56.107Z,13.67
2018-09-12T05:09:56.317Z,13.62
2018-09-12T05:10:56.490Z,13.67
2018-09-12T05:11:56.660Z,13.70
2018-09-12T05:12:56.924Z,13.62
2018-09-12T05:13:56.964Z,13.63
2018-09-12T05:14:57.138Z,13.68
2018-09-12T05:15:57.319Z,13.67
2018-09-12T05:16:57.499Z,13.62
2018-09-12T05:17:57.902Z,13.63
2018-09-12T05:18:57.803Z,13.60
2018-09-12T05:20:02.899Z,13.63
2018-09-12T05:20:58.223Z,13.68
2018-09-12T05:21:58.400Z,13.59
2018-09-12T05:23:00.047Z,13.59
2018-09-12T05:24:00.251Z,13.67
2018-09-12T05:24:59.634Z,13.68
2018-09-12T05:26:00.793Z,13.70
2018-09-12T05:26:59.803Z,13.75
2018-09-12T05:28:00.050Z,13.74
2018-09-12T05:28:59.939Z,13.62
2018-09-12T05:29:59.733Z,13.63
2018-09-12T05:30:59.916Z,13.56
2018-09-12T05:32:00.090Z,13.50
2018-09-12T05:33:00.339Z,13.59
2018-09-12T05:34:00.392Z,13.62
2018-09-12T05:35:00.565Z,13.62
2018-09-12T05:36:00.742Z,13.62
2018-09-12T05:37:00.925Z,13.68
2018-09-12T05:38:01.098Z,13.67
2018-09-12T05:39:01.270Z,13.70
2018-09-12T05:40:01.435Z,13.78
2018-09-12T05:41:01.607Z,13.79
2018-09-12T05:42:01.781Z,13.79
2018-09-12T05:43:01.952Z,13.81
2018-09-12T05:44:02.405Z,13.86
2018-09-12T05:45:02.273Z,13.81
2018-09-12T05:46:02.445Z,13.86
2018-09-12T05:47:02.631Z,13.96
2018-09-12T05:48:02.822Z,14.03
2018-09-12T05:49:02.996Z,14.03
2018-09-12T05:50:03.187Z,14.00
2018-09-12T05:51:03.338Z,14.12
2018-09-12T05:52:03.676Z,14.12
2018-09-12T05:53:03.729Z,14.15
2018-09-12T05:54:03.903Z,14.23
2018-09-12T05:55:04.084Z,14.26
2018-09-12T05:56:04.256Z,14.29
2018-09-12T05:57:04.425Z,14.35
2018-09-12T05:58:04.604Z,14.37
2018-09-12T05:59:04.784Z,14.44
2018-09-12T06:00:04.967Z,14.50
2018-09-12T06:01:05.150Z,14.58
2018-09-12T06:02:05.315Z,14.53
2018-09-12T06:03:05.484Z,14.66
2018-09-12T06:04:05.657Z,14.66
2018-09-12T06:05:05.827Z,14.88
2018-09-12T06:06:05.998Z,14.85
2018-09-12T06:07:06.259Z,14.84
2018-09-12T06:08:06.349Z,15.00
2018-09-12T06:09:06.525Z,15.06
2018-09-12T06:10:06.709Z,15.17
2018-09-12T06:11:06.888Z,15.18
2018-09-12T06:12:07.065Z,15.25
2018-09-12T06:13:07.242Z,15.42
2018-09-12T06:14:07.475Z,15.54
2018-09-12T06:15:07.593Z,15.62
2018-09-12T06:16:07.764Z,15.77
2018-09-12T06:17:07.943Z,16.21
2018-09-12T06:18:08.203Z,16.81
2018-09-12T06:19:08.313Z,17.39
2018-09-12T06:20:08.486Z,17.92
2018-09-12T06:21:08.660Z,18.37
2018-09-12T06:22:08.847Z,18.84
2018-09-12T06:23:09.020Z,19.31
2018-09-12T06:24:09.197Z,19.73
2018-09-12T06:25:09.369Z,19.95
2018-09-12T06:26:09.543Z,20.34
2018-09-12T06:27:09.717Z,20.60
2018-09-12T06:28:09.908Z,20.93
2018-09-12T06:29:10.088Z,20.99
2018-09-12T06:30:10.270Z,21.27
2018-09-12T06:31:10.441Z,21.32
2018-09-12T06:32:10.623Z,21.62
2018-09-12T06:33:10.797Z,21.98
2018-09-12T06:34:10.975Z,22.22
2018-09-12T06:35:11.156Z,22.59
2018-09-12T06:36:11.354Z,22.78
2018-09-12T06:37:11.512Z,23.00
2018-09-12T06:38:11.751Z,23.23
2018-09-12T06:39:11.876Z,23.66
2018-09-12T06:40:12.055Z,23.84
2018-09-12T06:41:12.439Z,23.98
2018-09-12T06:42:12.361Z,24.08
2018-09-12T06:43:12.541Z,24.08
2018-09-12T06:44:12.726Z,24.39
2018-09-12T06:45:12.908Z,24.24
2018-09-12T06:46:13.087Z,24.51
2018-09-12T06:47:13.276Z,24.54
2018-09-12T06:48:13.458Z,24.73
2018-09-12T06:49:13.645Z,24.86
2018-09-12T06:50:13.829Z,24.98
2018-09-12T06:51:14.017Z,25.13
2018-09-12T06:52:14.192Z,24.98
2018-09-12T06:53:14.387Z,25.22
2018-09-12T06:54:14.675Z,25.40
2018-09-12T06:55:14.706Z,25.36
2018-09-12T06:56:14.883Z,25.26
2018-09-12T06:57:15.071Z,25.32
2018-09-12T06:58:15.251Z,25.31
2018-09-12T06:59:15.428Z,25.44
2018-09-12T07:00:15.621Z,25.44
2018-09-12T07:01:15.807Z,25.51
2018-09-12T07:02:16.097Z,25.50
2018-09-12T07:03:16.927Z,25.65
2018-09-12T07:04:16.286Z,25.54
2018-09-12T07:05:16.483Z,25.66
2018-09-12T07:06:19.934Z,25.54
2018-09-12T07:07:21.415Z,25.47
2018-09-12T07:08:19.629Z,25.50
2018-09-12T07:09:19.479Z,25.44
2018-09-12T07:10:21.148Z,25.53
2018-09-12T07:11:21.977Z,25.50
2018-09-12T07:12:17.757Z,25.53
2018-09-12T07:13:17.942Z,25.38
2018-09-12T07:14:18.177Z,25.54
2018-09-12T07:15:18.299Z,25.47
2018-09-12T07:16:18.561Z,25.48
2018-09-12T07:17:19.214Z,25.48
2018-09-12T07:18:18.770Z,25.54
2018-09-12T07:19:18.958Z,25.75
2018-09-12T07:20:19.133Z,25.78
2018-09-12T07:21:19.314Z,25.78
2018-09-12T07:22:19.497Z,25.96
2018-09-12T07:23:19.690Z,25.98
2018-09-12T07:24:19.915Z,26.00
2018-09-12T07:25:20.084Z,26.18
2018-09-12T07:26:20.267Z,26.09
2018-09-12T07:27:20.457Z,26.05
2018-09-12T07:28:23.445Z,26.16
2018-09-12T07:29:20.868Z,26.21
2018-09-12T07:30:20.937Z,26.38
2018-09-12T07:31:21.107Z,26.47
2018-09-12T07:32:21.287Z,26.70
2018-09-12T07:33:21.510Z,26.85
2018-09-12T07:34:21.669Z,26.92
2018-09-12T07:35:21.864Z,26.89
2018-09-12T07:36:22.052Z,26.97
2018-09-12T07:37:22.250Z,26.85
2018-09-12T07:38:22.431Z,27.11
2018-09-12T07:39:22.687Z,27.21
2018-09-12T07:40:22.776Z,27.36
2018-09-12T07:41:22.943Z,27.36
2018-09-12T07:42:23.123Z,27.30
2018-09-12T07:43:23.300Z,27.14
2018-09-12T07:44:23.489Z,27.08
2018-09-12T07:45:23.670Z,27.22
2018-09-12T07:46:23.857Z,27.45
2018-09-12T07:47:24.038Z,27.32
2018-09-12T07:48:24.213Z,27.44
2018-09-12T07:49:24.397Z,27.33
2018-09-12T07:50:24.663Z,27.58
2018-09-12T07:51:24.700Z,27.59
2018-09-12T07:52:24.887Z,27.54
2018-09-12T07:53:26.437Z,27.71
2018-09-12T07:54:25.203Z,27.70
2018-09-12T07:55:25.389Z,27.93
2018-09-12T07:56:27.237Z,27.93
2018-09-12T07:57:26.222Z,28.07
2018-09-12T07:58:25.961Z,27.96
2018-09-12T07:59:26.134Z,28.08
2018-09-12T08:00:26.368Z,28.22
2018-09-12T08:01:26.523Z,28.47
2018-09-12T08:02:27.165Z,28.62
2018-09-12T08:03:26.939Z,28.62
2018-09-12T08:04:27.121Z,28.79
2018-09-12T08:05:27.301Z,28.84
2018-09-12T08:06:27.523Z,28.93
2018-09-12T08:07:27.678Z,28.86
2018-09-12T08:08:27.859Z,29.12
2018-09-12T08:09:28.114Z,28.91
2018-09-12T08:10:28.150Z,29.26
2018-09-12T08:11:28.631Z,29.34
2018-09-12T08:12:28.534Z,29.42
2018-09-12T08:13:28.743Z,29.63
2018-09-12T08:14:28.898Z,29.47
2018-09-12T08:15:29.117Z,29.42
2018-09-12T08:16:29.308Z,29.78
2018-09-12T08:17:29.533Z,30.00
2018-09-12T08:18:29.717Z,30.08
2018-09-12T08:19:29.895Z,30.08
2018-09-12T08:20:30.084Z,30.43
2018-09-12T08:21:30.269Z,30.34
2018-09-12T08:22:30.460Z,30.48
2018-09-12T08:23:30.654Z,30.66
2018-09-12T08:24:30.831Z,30.69
2018-09-12T08:25:31.021Z,30.85
2018-09-12T08:26:31.211Z,30.57
2018-09-12T08:27:31.396Z,30.70
2018-09-12T08:28:31.571Z,30.70
2018-09-12T08:29:31.748Z,30.66
2018-09-12T08:30:31.940Z,30.70
2018-09-12T08:31:32.117Z,30.55
2018-09-12T08:32:32.330Z,30.40
2018-09-12T08:33:32.513Z,30.31
2018-09-12T08:34:32.688Z,30.27
2018-09-12T08:35:32.873Z,30.21
2018-09-12T08:36:33.071Z,29.91
2018-09-12T08:37:33.238Z,30.00
2018-09-12T08:38:33.428Z,30.08
2018-09-12T08:39:33.593Z,29.84
2018-09-12T08:40:33.789Z,29.66
2018-09-12T08:41:33.978Z,29.59
2018-09-12T08:42:34.220Z,29.84
2018-09-12T08:43:34.344Z,29.66
2018-09-12T08:44:39.063Z,29.57
2018-09-12T08:45:34.778Z,29.26
2018-09-12T08:46:35.877Z,29.10
2018-09-12T08:47:35.103Z,28.86
2018-09-12T08:48:35.256Z,28.60
2018-09-12T08:49:36.441Z,28.38
2018-09-12T08:50:35.853Z,28.38
2018-09-12T08:51:35.723Z,28.20
2018-09-12T08:52:35.903Z,28.38
2018-09-12T08:53:36.740Z,28.45
2018-09-12T08:54:37.805Z,28.52
2018-09-12T08:55:36.375Z,28.39
2018-09-12T08:56:36.565Z,28.45
2018-09-12T08:57:38.117Z,28.33
2018-09-12T08:58:36.935Z,28.45
2018-09-12T08:59:37.131Z,28.64
2018-09-12T09:00:38.142Z,28.60
2018-09-12T09:01:37.546Z,28.85
2018-09-12T09:02:37.727Z,29.16
2018-09-12T09:03:37.912Z,29.22
2018-09-12T09:04:38.089Z,29.53
2018-09-12T09:05:38.312Z,29.79
2018-09-12T09:06:38.604Z,30.06
2018-09-12T09:07:38.722Z,30.62
2018-09-12T09:08:38.902Z,30.94
2018-09-12T09:09:39.086Z,31.24
2018-09-12T09:10:39.352Z,31.51
2018-09-12T09:11:39.481Z,31.89
2018-09-12T09:12:39.644Z,32.43
2018-09-12T09:13:39.848Z,32.90
2018-09-12T09:14:40.039Z,33.43
2018-09-12T09:15:40.222Z,33.74
2018-09-12T09:16:40.427Z,33.98
2018-09-12T09:17:40.604Z,34.16
2018-09-12T09:18:40.794Z,34.43
2018-09-12T09:19:40.990Z,34.85
2018-09-12T09:20:41.181Z,34.99
2018-09-12T09:21:41.359Z,35.12
2018-09-12T09:22:41.546Z,35.36
2018-09-12T09:23:41.786Z,35.63
2018-09-12T09:24:41.918Z,35.58
2018-09-12T09:25:42.108Z,35.51
2018-09-12T09:26:42.298Z,35.67
2018-09-12T09:27:42.487Z,35.41
2018-09-12T09:28:42.680Z,35.61
2018-09-12T09:29:43.040Z,35.26
2018-09-12T09:30:42.991Z,35.33
2018-09-12T09:31:43.172Z,35.41
2018-09-12T09:32:43.407Z,35.60
2018-09-12T09:33:43.566Z,35.61
2018-09-12T09:34:43.775Z,35.76
2018-09-12T09:35:44.073Z,36.12
2018-09-12T09:36:44.157Z,35.88
2018-09-12T09:37:44.342Z,35.85
2018-09-12T09:38:44.541Z,35.79
2018-09-12T09:39:44.737Z,35.82
2018-09-12T09:40:44.924Z,36.07
2018-09-12T09:41:45.119Z,36.36
2018-09-12T09:42:45.313Z,36.30
2018-09-12T09:43:45.538Z,36.70
2018-09-12T09:44:45.727Z,36.52
2018-09-12T09:45:45.913Z,36.65
2018-09-12T09:46:46.112Z,36.54
2018-09-12T09:47:46.317Z,36.57
2018-09-12T09:48:46.520Z,36.77
2018-09-12T09:49:46.681Z,36.58
2018-09-12T09:50:46.868Z,37.02
2018-09-12T09:51:47.057Z,37.28
2018-09-12T09:52:47.248Z,37.36
2018-09-12T09:53:47.442Z,37.71
2018-09-12T09:54:47.720Z,37.48
2018-09-12T09:55:47.946Z,37.56
2018-09-12T09:56:48.330Z,37.82
2018-09-12T09:57:48.576Z,38.21
2018-09-12T09:58:48.476Z,38.58
2018-09-12T09:59:48.544Z,39.06
2018-09-12T10:00:48.733Z,39.36
2018-09-12T10:01:50.829Z,39.56
2018-09-12T10:02:52.321Z,39.63
2018-09-12T10:03:52.711Z,39.41
2018-09-12T10:04:51.463Z,39.38
2018-09-12T10:05:52.188Z,39.30
2018-09-12T10:06:53.413Z,39.29
2018-09-12T10:07:53.939Z,39.41
2018-09-12T10:08:53.466Z,39.89
2018-09-12T10:09:52.297Z,39.85
2018-09-12T10:10:52.654Z,40.02
2018-09-12T10:11:50.833Z,40.21
2018-09-12T10:12:50.873Z,40.16
2018-09-12T10:13:51.066Z,40.61
2018-09-12T10:14:51.261Z,40.85
2018-09-12T10:15:51.462Z,41.19
2018-09-12T10:16:51.647Z,41.34
2018-09-12T10:17:51.854Z,41.41
2018-09-12T10:18:52.041Z,41.36
2018-09-12T10:19:52.238Z,41.28
2018-09-12T10:20:52.433Z,41.26
2018-09-12T10:21:52.630Z,41.29
2018-09-12T10:22:52.823Z,41.31
2018-09-12T10:23:53.016Z,41.29
2018-09-12T10:24:53.211Z,41.28
2018-09-12T10:25:53.402Z,40.87
2018-09-12T10:26:53.597Z,40.73
2018-09-12T10:27:53.783Z,40.72
2018-09-12T10:28:54.289Z,40.91
2018-09-12T10:29:54.130Z,41.04
2018-09-12T10:30:54.322Z,41.36
2018-09-12T10:31:54.517Z,41.63
2018-09-12T10:32:54.712Z,41.90
2018-09-12T10:33:54.903Z,41.97
2018-09-12T10:34:55.097Z,42.01
2018-09-12T10:35:55.285Z,41.98
2018-09-12T10:36:55.475Z,42.04
2018-09-12T10:37:55.665Z,41.66
2018-09-12T10:38:55.860Z,41.62
2018-09-12T10:39:56.053Z,41.40
2018-09-12T10:40:56.382Z,41.38
2018-09-12T10:41:56.403Z,41.44
2018-09-12T10:42:56.604Z,41.49
2018-09-12T10:43:56.810Z,41.57
2018-09-12T10:44:57.001Z,41.45
2018-09-12T10:45:57.200Z,41.43
2018-09-12T10:46:57.387Z,41.02
2018-09-12T10:47:57.575Z,41.07
2018-09-12T10:48:57.775Z,40.73
2018-09-12T10:49:57.969Z,40.16
2018-09-12T10:50:58.158Z,40.44
2018-09-12T10:51:58.357Z,40.16
2018-09-12T10:52:58.541Z,40.16
2018-09-12T10:53:58.731Z,40.44
2018-09-12T10:54:58.926Z,40.90
2018-09-12T10:55:59.121Z,41.12
2018-09-12T10:56:59.368Z,41.00
2018-09-12T10:57:59.451Z,40.47
2018-09-12T10:58:59.642Z,40.30
2018-09-12T10:59:59.875Z,40.65
2018-09-12T11:00:59.971Z,40.90
2018-09-12T11:02:00.168Z,40.88
2018-09-12T11:03:00.357Z,40.85
2018-09-12T11:04:00.591Z,41.02
2018-09-12T11:05:01.273Z,41.37
2018-09-12T11:06:01.021Z,41.55
2018-09-12T11:07:01.457Z,41.57
2018-09-12T11:08:01.356Z,40.77
2018-09-12T11:09:02.111Z,41.07
2018-09-12T11:10:01.729Z,41.10
2018-09-12T11:11:01.927Z,41.25
2018-09-12T11:12:02.122Z,41.26
2018-09-12T11:13:02.318Z,41.26
2018-09-12T11:14:02.522Z,41.47
2018-09-12T11:15:02.706Z,41.75
2018-09-12T11:16:02.899Z,42.01
2018-09-12T11:17:03.094Z,42.16
2018-09-12T11:18:03.406Z,42.44
2018-09-12T11:19:03.504Z,42.28
2018-09-12T11:20:03.705Z,41.50
2018-09-12T11:21:03.903Z,41.04
2018-09-12T11:22:04.091Z,41.04
2018-09-12T11:23:04.286Z,41.09
2018-09-12T11:24:04.553Z,41.37
2018-09-12T11:25:04.674Z,41.44
2018-09-12T11:26:06.793Z,41.22
2018-09-12T11:27:05.747Z,41.31
2018-09-12T11:28:05.228Z,41.59
2018-09-12T11:29:05.365Z,41.41
2018-09-12T11:30:05.693Z,41.28
2018-09-12T11:31:05.764Z,41.41
2018-09-12T11:32:06.056Z,41.40
2018-09-12T11:33:06.143Z,41.56
2018-09-12T11:34:06.400Z,41.57
2018-09-12T11:35:07.027Z,41.43
2018-09-12T11:36:06.791Z,41.50
2018-09-12T11:37:06.866Z,41.16
2018-09-12T11:38:07.085Z,41.22
2018-09-12T11:39:07.456Z,40.95
2018-09-12T11:40:07.500Z,41.12
2018-09-12T11:41:07.793Z,41.04
2018-09-12T11:42:07.841Z,40.97
2018-09-12T11:43:08.034Z,40.34
2018-09-12T11:44:08.227Z,40.18
2018-09-12T11:45:08.421Z,40.61
2018-09-12T11:46:11.947Z,40.63
2018-09-12T11:47:08.874Z,40.73
2018-09-12T11:48:09.090Z,40.82
2018-09-12T11:49:09.340Z,41.00
2018-09-12T11:50:09.467Z,40.70
2018-09-12T11:51:09.695Z,40.78
2018-09-12T11:52:09.863Z,40.99
2018-09-12T11:53:10.165Z,41.16
2018-09-12T11:54:10.237Z,41.14
2018-09-12T11:55:10.436Z,41.06
2018-09-12T11:56:10.646Z,41.16
2018-09-12T11:57:10.837Z,40.99
2018-09-12T11:58:11.172Z,40.90
2018-09-12T11:59:11.260Z,40.81
2018-09-12T12:00:11.471Z,40.85
2018-09-12T12:01:11.912Z,40.31
2018-09-12T12:02:11.946Z,39.87
2018-09-12T12:03:12.089Z,39.81
2018-09-12T12:04:12.304Z,39.59
2018-09-12T12:05:12.533Z,39.56
2018-09-12T12:06:12.671Z,39.46
2018-09-12T12:07:13.345Z,39.43
2018-09-12T12:08:13.761Z,39.03
2018-09-12T12:09:13.617Z,38.79
2018-09-12T12:10:13.829Z,38.60
2018-09-12T12:11:13.488Z,38.21
2018-09-12T12:12:13.670Z,37.64
2018-09-12T12:13:13.877Z,37.28
2018-09-12T12:14:14.084Z,36.79
2018-09-12T12:15:14.333Z,36.43
2018-09-12T12:16:14.478Z,36.01
2018-09-12T12:17:14.663Z,35.64
2018-09-12T12:18:14.856Z,35.19
2018-09-12T12:19:15.069Z,35.02
2018-09-12T12:20:15.257Z,34.66
2018-09-12T12:21:17.005Z,34.38
2018-09-12T12:22:18.267Z,34.20
2018-09-12T12:23:17.806Z,34.02
2018-09-12T12:24:16.414Z,33.90
2018-09-12T12:25:16.555Z,33.79
2018-09-12T12:26:16.688Z,33.57
2018-09-12T12:27:17.319Z,33.32
2018-09-12T12:28:18.948Z,33.22
2018-09-12T12:29:17.213Z,33.15
2018-09-12T12:30:17.269Z,33.17
2018-09-12T12:31:17.693Z,33.22
2018-09-12T12:32:17.690Z,33.22
2018-09-12T12:33:18.011Z,33.09
2018-09-12T12:34:18.281Z,32.93
2018-09-12T12:35:18.574Z,32.87
2018-09-12T12:36:18.637Z,32.89
2018-09-12T12:37:21.594Z,32.85
2018-09-12T12:38:18.948Z,32.86
2018-09-12T12:39:19.134Z,32.86
2018-09-12T12:40:19.124Z,32.70
2018-09-12T12:41:22.584Z,32.70
2018-09-12T12:42:21.821Z,32.67
2018-09-12T12:43:19.861Z,32.73
2018-09-12T12:44:20.041Z,32.75
2018-09-12T12:45:19.789Z,32.71
2018-09-12T12:46:20.054Z,32.70
2018-09-12T12:47:20.114Z,32.75
2018-09-12T12:48:20.325Z,32.71
2018-09-12T12:49:20.518Z,32.68
2018-09-12T12:50:20.707Z,32.68
2018-09-12T12:51:20.909Z,32.46
2018-09-12T12:52:21.093Z,32.40
2018-09-12T12:53:21.413Z,32.31
2018-09-12T12:54:21.509Z,32.18